Time,TemperatureF,DewpointF,PressureIn,WindDirection,WindDirectionDegrees,WindSpeedMPH,WindSpeedGustMPH,Humidity,HourlyPrecipIn,Conditions,Clouds,dailyrainin,SoftwareType,DateUTC
2013-04-29 13:21:00,21.0,20.0,29.83,North,-999,-999.0,-999.0,95,-99.99,,,-99.99,,2013-04-29 19:21:00,
2013-04-29 13:31:00,22.0,21.0,29.85,North,-999,-999.0,-999.0,95,-99.99,,,-99.99,,2013-04-29 19:31:00,
2013-04-29 13:41:00,22.0,21.0,29.85,North,-999,-999.0,-999.0,95,-99.99,,,-99.99,,2013-04-29 19:41:00,
2013-04-29 13:52:00,22.0,21.0,29.86,ESE,106,2.0,-999.0,95,-99.99,,,-99.99,,2013-04-29 19:52:00,
2013-04-29 14:01:00,22.0,21.0,29.85,ENE,66,5.0,-999.0,95,-99.99,,,-99.99,,2013-04-29 20:01:00,
2013-04-29 14:11:00,22.0,21.0,29.85,ENE,66,5.0,-999.0,95,-99.99,,,-99.99,,2013-04-29 20:11:00,
2013-04-29 14:21:00,24.0,23.0,29.86,NE,46,6.0,-999.0,95,-99.99,,,-99.99,,2013-04-29 20:21:00,
2013-04-29 14:32:00,26.0,25.0,29.88,NNW,333,2.0,-999.0,96,-99.99,,,-99.99,,2013-04-29 20:32:00,
2013-04-29 14:42:00,26.0,25.0,29.88,NNW,333,2.0,-999.0,96,-99.99,,,-99.99,,2013-04-29 20:42:00,
2013-04-29 14:52:00,26.0,25.0,29.89,NNW,341,3.0,-999.0,96,-99.99,,,-99.99,,2013-04-29 20:52:00,
2013-04-29 15:01:00,24.0,23.0,29.91,West,272,4.0,-999.0,95,-99.99,,,-99.99,,2013-04-29 21:01:00,
2013-04-29 15:11:00,24.0,23.0,29.91,West,272,4.0,-999.0,95,-99.99,,,-99.99,,2013-04-29 21:11:00,
2013-04-29 15:21:00,24.0,23.0,29.92,NW,312,2.0,-999.0,96,-99.99,,,-99.99,,2013-04-29 21:21:00,
2013-04-29 15:32:00,24.0,23.0,29.93,NW,305,1.0,-999.0,96,-99.99,,,-99.99,,2013-04-29 21:32:00,
2013-04-29 15:42:00,24.0,23.0,29.93,NW,305,1.0,-999.0,96,-99.99,,,-99.99,,2013-04-29 21:42:00,
2013-04-29 15:53:00,25.0,24.0,29.95,NNW,335,1.0,-999.0,96,-99.99,,,-99.99,,2013-04-29 21:53:00,
2013-04-29 16:02:00,25.0,24.0,29.94,East,90,1.0,-999.0,95,-99.99,,,-99.99,,2013-04-29 22:02:00,
2013-04-29 16:13:00,25.0,24.0,29.94,East,90,1.0,-999.0,95,-99.99,,,-99.99,,2013-04-29 22:13:00,
2013-04-29 16:23:00,25.0,24.0,29.95,WNW,301,1.0,-999.0,96,-99.99,,,-99.99,,2013-04-29 22:23:00,
2013-04-29 16:32:00,26.0,25.0,29.95,NW,316,1.0,-999.0,96,-99.99,,,-99.99,,2013-04-29 22:32:00,
2013-04-29 16:42:00,26.0,25.0,29.95,NW,316,1.0,-999.0,96,-99.99,,,-99.99,,2013-04-29 22:42:00,
2013-04-29 16:52:00,26.0,25.0,29.96,NE,46,0.0,-999.0,96,-99.99,,,-99.99,,2013-04-29 22:52:00,
2013-04-29 17:02:00,25.0,24.0,29.96,ENE,76,0.0,-999.0,96,-99.99,,,-99.99,,2013-04-29 23:02:00,
2013-04-29 17:11:00,25.0,24.0,29.96,ENE,76,0.0,-999.0,96,-99.99,,,-99.99,,2013-04-29 23:11:00,
2013-04-29 17:22:00,23.0,22.0,29.97,WNW,299,2.0,-999.0,95,-99.99,,,-99.99,,2013-04-29 23:22:00,
2013-04-29 17:31:00,22.0,21.0,29.98,North,10,3.0,-999.0,95,-99.99,,,-99.99,,2013-04-29 23:31:00,
2013-04-29 17:41:00,22.0,21.0,29.98,North,10,3.0,-999.0,95,-99.99,,,-99.99,,2013-04-29 23:41:00,
2013-04-29 17:52:00,22.0,20.0,29.98,NE,48,3.0,-999.0,93,-99.99,,,-99.99,,2013-04-29 23:52:00,
2013-04-29 18:01:00,24.0,22.0,29.99,NW,308,4.0,-999.0,93,-99.99,,,-99.99,,2013-04-30 00:01:00,
2013-04-29 18:11:00,24.0,22.0,29.99,NW,308,4.0,-999.0,93,-99.99,,,-99.99,,2013-04-30 00:11:00,
2013-04-29 18:21:00,24.0,22.0,30.00,WNW,302,2.0,-999.0,93,-99.99,,,-99.99,,2013-04-30 00:21:00,
2013-04-29 18:31:00,23.0,22.0,30.02,WNW,303,2.0,-999.0,94,-99.99,,,-99.99,,2013-04-30 00:31:00,
2013-04-29 18:41:00,23.0,22.0,30.02,WNW,303,2.0,-999.0,94,-99.99,,,-99.99,,2013-04-30 00:41:00,
2013-04-29 18:52:00,23.0,22.0,30.02,NW,305,2.0,-999.0,94,-99.99,,,-99.99,,2013-04-30 00:52:00,
2013-04-29 19:01:00,22.0,21.0,30.03,NNW,345,3.0,-999.0,94,-99.99,,,-99.99,,2013-04-30 01:01:00,
2013-04-29 19:11:00,22.0,21.0,30.03,NNW,345,3.0,-999.0,94,-99.99,,,-99.99,,2013-04-30 01:11:00,
2013-04-29 19:21:00,21.0,19.0,30.03,ENE,60,4.0,-999.0,93,-99.99,,,-99.99,,2013-04-30 01:21:00,
2013-04-29 19:31:00,23.0,21.0,30.03,SSE,154,7.0,-999.0,90,-99.99,,,-99.99,,2013-04-30 01:31:00,
2013-04-29 19:41:00,23.0,21.0,30.03,SSE,154,7.0,-999.0,90,-99.99,,,-99.99,,2013-04-30 01:41:00,
2013-04-29 19:52:00,22.0,20.0,30.03,WNW,293,2.0,-999.0,93,-99.99,,,-99.99,,2013-04-30 01:52:00,
2013-04-29 20:01:00,21.0,19.0,30.03,NW,315,2.0,-999.0,93,-99.99,,,-99.99,,2013-04-30 02:01:00,
2013-04-29 20:11:00,21.0,19.0,30.03,NW,315,2.0,-999.0,93,-99.99,,,-99.99,,2013-04-30 02:11:00,
2013-04-29 20:21:00,21.0,19.0,30.04,WNW,301,3.0,-999.0,93,-99.99,,,-99.99,,2013-04-30 02:21:00,
2013-04-29 20:31:00,21.0,19.0,30.06,NW,313,4.0,-999.0,93,-99.99,,,-99.99,,2013-04-30 02:31:00,
2013-04-29 20:41:00,21.0,19.0,30.06,NW,313,4.0,-999.0,93,-99.99,,,-99.99,,2013-04-30 02:41:00,
2013-04-29 20:51:00,21.0,19.0,30.07,NW,314,2.0,-999.0,93,-99.99,,,-99.99,,2013-04-30 02:51:00,
2013-04-29 21:01:00,21.0,19.0,30.08,NNW,347,1.0,-999.0,92,-99.99,,,-99.99,,2013-04-30 03:01:00,
2013-04-29 21:11:00,21.0,19.0,30.08,NNW,347,1.0,-999.0,92,-99.99,,,-99.99,,2013-04-30 03:11:00,
2013-04-29 21:21:00,20.0,18.0,30.08,West,279,2.0,-999.0,93,-99.99,,,-99.99,,2013-04-30 03:21:00,
2013-04-29 21:32:00,20.0,18.0,30.09,NW,313,1.0,-999.0,92,-99.99,,,-99.99,,2013-04-30 03:32:00,
2013-04-29 21:42:00,20.0,18.0,30.09,NW,313,1.0,-999.0,92,-99.99,,,-99.99,,2013-04-30 03:42:00,
2013-04-29 21:52:00,19.0,17.0,30.09,NW,320,0.0,-999.0,93,-99.99,,,-99.99,,2013-04-30 03:52:00,
2013-04-29 22:02:00,19.0,17.0,30.10,NW,320,1.0,-999.0,93,-99.99,,,-99.99,,2013-04-30 04:02:00,
2013-04-29 22:12:00,19.0,17.0,30.10,NW,320,1.0,-999.0,93,-99.99,,,-99.99,,2013-04-30 04:12:00,
2013-04-29 22:22:00,20.0,18.0,30.10,WNW,297,2.0,-999.0,93,-99.99,,,-99.99,,2013-04-30 04:22:00,
2013-04-29 22:32:00,20.0,18.0,30.10,WNW,299,3.0,-999.0,93,-99.99,,,-99.99,,2013-04-30 04:32:00,
2013-04-29 22:42:00,20.0,18.0,30.10,WNW,299,3.0,-999.0,93,-99.99,,,-99.99,,2013-04-30 04:42:00,
2013-04-29 22:52:00,20.0,18.0,30.10,WNW,301,2.0,-999.0,93,-99.99,,,-99.99,,2013-04-30 04:52:00,
2013-04-29 23:02:00,20.0,18.0,30.10,NW,314,3.0,-999.0,93,-99.99,,,-99.99,,2013-04-30 05:02:00,
2013-04-29 23:11:00,20.0,18.0,30.10,NW,314,3.0,-999.0,93,-99.99,,,-99.99,,2013-04-30 05:11:00,
2013-04-29 23:22:00,19.0,17.0,30.10,WNW,297,2.0,-999.0,93,-99.99,,,-99.99,,2013-04-30 05:22:00,
2013-04-29 23:31:00,19.0,17.0,30.11,NW,314,0.0,-999.0,93,-99.99,,,-99.99,,2013-04-30 05:31:00,
2013-04-29 23:42:00,19.0,17.0,30.11,NW,314,0.0,-999.0,93,-99.99,,,-99.99,,2013-04-30 05:42:00,
2013-04-29 23:51:00,19.0,18.0,30.11,NW,314,0.0,-999.0,94,-99.99,,,-99.99,,2013-04-30 05:51:00,